Forside
METAR-TAF:

METAR-TAF

Lufthavne :

Balkhash, Kasakhstan

Breddekreds: 46-53-38N, længdekreds: 075-00-19E, højde: 440 m

Aktuelle vejr

Denne rapport blev lavet for 2 timer og 1 minutter siden, kl. 11:30 UTC
Vind 8 kt fra syd
Temperatur 21°C
Fugtighed 23%
Tryk 1013 hPa
Sigt 10 km eller mere
ingen skyer under 1500m og ingen cumulonimbus

METAR: UAAH 191130Z 18004MPS CAVOK 21/M01 Q1013 NOSIG RMK QFE723/0964

Tid: 19:31 (13:31 UTC)

Vejrudsigter

Denne rapport blev lavet for 2 timer og 29 minutter siden, kl. 11:02 UTC
Foreløbig gælder fra 19 på 12 UTC til 19 på 21 UTC
Vind 16 kt fra sydøst
Sigt 10 km eller mere
Spredte skyer i en højde af 4000 ft
Spredte skyer i en højde af 10000 ft

TAF: UAAH 191102Z 1912/1921 14008MPS 9999 SCT040 SCT100

Vejrobservationer og prognoser fra mere end 4000 lufthavne (METAR og TAF).

De gule og røde prikker repræsenterer de meteorologiske stationer.

Flyt musen over at se navnet på stationen.

Så klik over at se vejr observationer og prognoser.

At skifte det kort: Klik på de grønne knapper med et sort kors for at zoome ind; på den grønne knap med en bindestreg for at zoome ud; eller på de grønne pile for tilstødende kort.


METAR-TAF: